Terminal Aerodrome Forecast
Issued by NWS Cleveland, OH

Home | Current Version | Previous Version | Text Only | Print | Product List | Glossary Off
Versions: 1 2 3 4 5 6 7 8 9 10 11 12 13 14 15 16 17 18 19

000
FTUS41 KCLE 240520
TAFMFD
TAF
KMFD 240520Z 2406/2506 16003KT P6SM SCT250
     FM241500 18008KT P6SM SCT045 BKN250
     FM242000 19012G18KT P6SM BKN045 OVC120
     FM242200 19012G18KT P6SM VCSH OVC045
      TEMPO 2500/2504 4SM TSRA OVC025CB
     FM250400 20010KT 5SM -SHRA BR OVC035=

USA.gov is the U.S. government's official web portal to all federal, state and local government web resources and services.